Forside
METAR-TAF:

METAR-TAF

Lufthavne :

Dakar, Senegal

Breddekreds: 14-44N, længdekreds: 017-30W, højde: 27 m

Aktuelle vejr

Denne rapport blev lavet for 37 minutter siden, kl. 12:00 UTC
Vind 10 kt fra nordnordøst
Temperatur 22°C
Fugtighed 57%
Tryk 1017 hPa
Sigt 10 km eller mere
ingen skyer under 1500m og ingen cumulonimbus

METAR: GOOY 221200Z 02010KT CAVOK 22/13 Q1017

Tid: 12:37 (12:37 UTC)

Vejrudsigter

Denne rapport blev lavet for 1 time og 7 minutter siden, kl. 11:30 UTC
Foreløbig gælder fra 22 på 12 UTC til 23 på 18 UTC
Vind 10 kt fra nord
Sigt 10 km eller mere
ingen skyer under 1500m og ingen cumulonimbus

TAF: GOOY 221130Z 2212/2318 01010KT CAVOK

Vejrobservationer og prognoser fra mere end 4000 lufthavne (METAR og TAF).

De gule og røde prikker repræsenterer de meteorologiske stationer.

Flyt musen over at se navnet på stationen.

Så klik over at se vejr observationer og prognoser.

At skifte det kort: Klik på de grønne knapper med et sort kors for at zoome ind; på den grønne knap med en bindestreg for at zoome ud; eller på de grønne pile for tilstødende kort.


METAR-TAF: